sensor_id;sensor_type;location;lat;lon;timestamp;pressure;altitude;pressure_sealevel;temperature;humidity
55470;BME280;41334;47.872;16.384;2022-10-16T00:02:18;99436.03;;;6.49;100.00
55470;BME280;41334;47.872;16.384;2022-10-16T00:05:20;99431.41;;;6.51;100.00
55470;BME280;41334;47.872;16.384;2022-10-16T00:08:22;99425.91;;;6.52;100.00
55470;BME280;41334;47.872;16.384;2022-10-16T00:11:27;99439.25;;;6.60;100.00
55470;BME280;41334;47.872;16.384;2022-10-16T00:14:29;99431.41;;;6.51;100.00
55470;BME280;41334;47.872;16.384;2022-10-16T00:17:31;99428.09;;;6.57;100.00
55470;BME280;41334;47.872;16.384;2022-10-16T00:20:34;99431.75;;;6.56;100.00
55470;BME280;41334;47.872;16.384;2022-10-16T00:23:36;99419.56;;;6.53;100.00
55470;BME280;41334;47.872;16.384;2022-10-16T00:26:38;99423.91;;;6.54;100.00
55470;BME280;41334;47.872;16.384;2022-10-16T00:29:40;99418.09;;;6.51;100.00
55470;BME280;41334;47.872;16.384;2022-10-16T00:32:42;99430.09;;;6.55;100.00
55470;BME280;41334;47.872;16.384;2022-10-16T00:35:44;99427.41;;;6.47;100.00
55470;BME280;41334;47.872;16.384;2022-10-16T00:38:46;99430.41;;;6.52;100.00
55470;BME280;41334;47.872;16.384;2022-10-16T00:41:48;99437.22;;;6.46;100.00
55470;BME280;41334;47.872;16.384;2022-10-16T00:44:53;99426.72;;;6.45;100.00
55470;BME280;41334;47.872;16.384;2022-10-16T00:47:57;99433.91;;;6.52;100.00
55470;BME280;41334;47.872;16.384;2022-10-16T00:50:59;99437.75;;;6.58;100.00
55470;BME280;41334;47.872;16.384;2022-10-16T00:54:04;99437.91;;;6.64;100.00
55470;BME280;41334;47.872;16.384;2022-10-16T00:57:06;99449.44;;;6.65;100.00
55470;BME280;41334;47.872;16.384;2022-10-16T01:00:12;99447.94;;;6.79;100.00
55470;BME280;41334;47.872;16.384;2022-10-16T01:03:27;99446.66;;;6.91;100.00
55470;BME280;41334;47.872;16.384;2022-10-16T01:06:42;99456.47;;;6.99;100.00
55470;BME280;41334;47.872;16.384;2022-10-16T01:13:10;99457.13;;;7.01;100.00
55470;BME280;41334;47.872;16.384;2022-10-16T01:29:48;99447.19;;;7.27;100.00
55470;BME280;41334;47.872;16.384;2022-10-16T01:33:03;99447.84;;;7.29;100.00
55470;BME280;41334;47.872;16.384;2022-10-16T01:36:28;99462.50;;;7.33;100.00
55470;BME280;41334;47.872;16.384;2022-10-16T01:39:35;99456.50;;;7.39;100.00
55470;BME280;41334;47.872;16.384;2022-10-16T01:42:51;99455.00;;;7.45;100.00
55470;BME280;41334;47.872;16.384;2022-10-16T01:45:55;99453.19;;;7.37;100.00
55470;BME280;41334;47.872;16.384;2022-10-16T01:48:59;99459.50;;;7.44;100.00
55470;BME280;41334;47.872;16.384;2022-10-16T01:52:05;99465.00;;;7.51;100.00
55470;BME280;41334;47.872;16.384;2022-10-16T01:55:09;99460.84;;;7.48;100.00
55470;BME280;41334;47.872;16.384;2022-10-16T01:58:13;99463.84;;;7.54;100.00
55470;BME280;41334;47.872;16.384;2022-10-16T02:01:16;99456.00;;;7.44;100.00
55470;BME280;41334;47.872;16.384;2022-10-16T02:04:28;99445.81;;;7.56;100.00
55470;BME280;41334;47.872;16.384;2022-10-16T02:07:31;99463.84;;;7.54;100.00
55470;BME280;41334;47.872;16.384;2022-10-16T02:10:35;99458.66;;;7.60;100.00
55470;BME280;41334;47.872;16.384;2022-10-16T02:13:45;99468.16;;;7.71;100.00
55470;BME280;41334;47.872;16.384;2022-10-16T02:16:49;99465.81;;;7.68;100.00
55470;BME280;41334;47.872;16.384;2022-10-16T02:19:54;99466.16;;;7.65;100.00
55470;BME280;41334;47.872;16.384;2022-10-16T02:22:58;99471.16;;;7.68;100.00
55470;BME280;41334;47.872;16.384;2022-10-16T02:26:02;99477.16;;;7.62;100.00
55470;BME280;41334;47.872;16.384;2022-10-16T02:29:10;99472.47;;;7.72;100.00
55470;BME280;41334;47.872;16.384;2022-10-16T02:32:16;99470.31;;;7.67;100.00
55470;BME280;41334;47.872;16.384;2022-10-16T02:35:20;99469.66;;;7.73;100.00
55470;BME280;41334;47.872;16.384;2022-10-16T02:38:23;99470.81;;;7.71;100.00
55470;BME280;41334;47.872;16.384;2022-10-16T02:41:26;99474.16;;;7.73;100.00
55470;BME280;41334;47.872;16.384;2022-10-16T02:44:28;99474.16;;;7.73;100.00
55470;BME280;41334;47.872;16.384;2022-10-16T02:47:31;99484.16;;;7.71;100.00
55470;BME280;41334;47.872;16.384;2022-10-16T02:50:33;99492.34;;;7.69;100.00
55470;BME280;41334;47.872;16.384;2022-10-16T02:53:35;99489.19;;;7.74;100.00
55470;BME280;41334;47.872;16.384;2022-10-16T02:56:37;99489.19;;;7.82;100.00
55470;BME280;41334;47.872;16.384;2022-10-16T02:59:39;99482.00;;;7.83;100.00
55470;BME280;41334;47.872;16.384;2022-10-16T03:02:40;99492.81;;;7.81;100.00
55470;BME280;41334;47.872;16.384;2022-10-16T03:05:43;99484.53;;;7.84;100.00
55470;BME280;41334;47.872;16.384;2022-10-16T03:08:47;99483.16;;;7.88;100.00
55470;BME280;41334;47.872;16.384;2022-10-16T03:11:48;99484.53;;;7.84;100.00
55470;BME280;41334;47.872;16.384;2022-10-16T03:14:50;99480.16;;;7.83;100.00
55470;BME280;41334;47.872;16.384;2022-10-16T03:17:52;99485.19;;;7.86;100.00
55470;BME280;41334;47.872;16.384;2022-10-16T03:20:54;99481.69;;;7.86;100.00
55470;BME280;41334;47.872;16.384;2022-10-16T03:23:55;99476.84;;;7.89;100.00
55470;BME280;41334;47.872;16.384;2022-10-16T03:26:57;99482.50;;;7.86;100.00
55470;BME280;41334;47.872;16.384;2022-10-16T03:29:59;99492.69;;;7.91;100.00
55470;BME280;41334;47.872;16.384;2022-10-16T03:33:01;99490.84;;;7.91;100.00
55470;BME280;41334;47.872;16.384;2022-10-16T03:36:02;99491.84;;;7.90;100.00
55470;BME280;41334;47.872;16.384;2022-10-16T03:39:04;99492.69;;;7.91;100.00
55470;BME280;41334;47.872;16.384;2022-10-16T03:42:06;99484.66;;;7.91;100.00
55470;BME280;41334;47.872;16.384;2022-10-16T03:45:08;99491.03;;;7.90;100.00
55470;BME280;41334;47.872;16.384;2022-10-16T03:48:10;99488.84;;;7.85;100.00
55470;BME280;41334;47.872;16.384;2022-10-16T03:51:12;99503.22;;;7.84;100.00
55470;BME280;41334;47.872;16.384;2022-10-16T03:54:13;99503.34;;;7.83;100.00
55470;BME280;41334;47.872;16.384;2022-10-16T03:57:15;99512.88;;;7.85;100.00
55470;BME280;41334;47.872;16.384;2022-10-16T04:00:17;99510.53;;;7.82;100.00
55470;BME280;41334;47.872;16.384;2022-10-16T04:03:19;99526.53;;;7.82;100.00
55470;BME280;41334;47.872;16.384;2022-10-16T04:06:21;99520.06;;;7.85;100.00
55470;BME280;41334;47.872;16.384;2022-10-16T04:09:23;99531.19;;;7.88;100.00
55470;BME280;41334;47.872;16.384;2022-10-16T04:12:26;99533.22;;;7.86;100.00
55470;BME280;41334;47.872;16.384;2022-10-16T04:15:28;99542.88;;;7.79;100.00
55470;BME280;41334;47.872;16.384;2022-10-16T04:18:30;99549.88;;;7.80;100.00
55470;BME280;41334;47.872;16.384;2022-10-16T04:21:31;99542.03;;;7.70;100.00
55470;BME280;41334;47.872;16.384;2022-10-16T04:24:33;99542.88;;;7.79;100.00
55470;BME280;41334;47.872;16.384;2022-10-16T04:27:35;99531.56;;;7.85;100.00
55470;BME280;41334;47.872;16.384;2022-10-16T04:30:39;99521.69;;;7.94;100.00
55470;BME280;41334;47.872;16.384;2022-10-16T04:33:44;99512.53;;;7.96;100.00
55470;BME280;41334;47.872;16.384;2022-10-16T04:36:49;99512.00;;;7.93;100.00
55470;BME280;41334;47.872;16.384;2022-10-16T04:39:52;99513.19;;;7.90;100.00
55470;BME280;41334;47.872;16.384;2022-10-16T04:42:54;99521.22;;;7.82;100.00
55470;BME280;41334;47.872;16.384;2022-10-16T04:45:55;99530.38;;;7.80;100.00
55470;BME280;41334;47.872;16.384;2022-10-16T04:48:58;99521.84;;;7.76;100.00
55470;BME280;41334;47.872;16.384;2022-10-16T04:51:59;99517.00;;;7.71;100.00
55470;BME280;41334;47.872;16.384;2022-10-16T04:55:01;99519.50;;;7.73;100.00
55470;BME280;41334;47.872;16.384;2022-10-16T04:58:04;99517.53;;;7.59;100.00
55470;BME280;41334;47.872;16.384;2022-10-16T05:01:06;99520.19;;;7.59;100.00
55470;BME280;41334;47.872;16.384;2022-10-16T05:04:08;99526.69;;;7.64;100.00
55470;BME280;41334;47.872;16.384;2022-10-16T05:07:10;99539.03;;;7.57;100.00
55470;BME280;41334;47.872;16.384;2022-10-16T05:10:12;99527.03;;;7.53;100.00
55470;BME280;41334;47.872;16.384;2022-10-16T05:13:13;99540.53;;;7.43;100.00
55470;BME280;41334;47.872;16.384;2022-10-16T05:16:15;99545.66;;;7.37;100.00
55470;BME280;41334;47.872;16.384;2022-10-16T05:19:17;99554.53;;;7.37;100.00
55470;BME280;41334;47.872;16.384;2022-10-16T05:22:28;99554.53;;;7.45;100.00
55470;BME280;41334;47.872;16.384;2022-10-16T05:25:30;99550.22;;;7.53;100.00
55470;BME280;41334;47.872;16.384;2022-10-16T05:28:32;99559.88;;;7.54;100.00
55470;BME280;41334;47.872;16.384;2022-10-16T05:31:34;99562.53;;;7.54;100.00
55470;BME280;41334;47.872;16.384;2022-10-16T05:34:35;99568.88;;;7.61;100.00
55470;BME280;41334;47.872;16.384;2022-10-16T05:37:37;99579.22;;;7.64;100.00
55470;BME280;41334;47.872;16.384;2022-10-16T05:40:39;99586.88;;;7.67;100.00
55470;BME280;41334;47.872;16.384;2022-10-16T05:43:41;99589.56;;;7.67;100.00
55470;BME280;41334;47.872;16.384;2022-10-16T05:46:42;99580.03;;;7.72;100.00
55470;BME280;41334;47.872;16.384;2022-10-16T05:49:44;99582.06;;;7.79;100.00
55470;BME280;41334;47.872;16.384;2022-10-16T05:52:46;99582.06;;;7.70;100.00
55470;BME280;41334;47.872;16.384;2022-10-16T05:55:52;99589.22;;;7.78;100.00
55470;BME280;41334;47.872;16.384;2022-10-16T05:58:54;99584.88;;;7.77;100.00
55470;BME280;41334;47.872;16.384;2022-10-16T06:01:56;99589.06;;;7.80;100.00
55470;BME280;41334;47.872;16.384;2022-10-16T06:04:58;99601.09;;;7.92;100.00
55470;BME280;41334;47.872;16.384;2022-10-16T06:08:00;99606.28;;;8.02;100.00
55470;BME280;41334;47.872;16.384;2022-10-16T06:11:07;99610.44;;;8.20;100.00
55470;BME280;41334;47.872;16.384;2022-10-16T06:14:09;99614.59;;;8.23;100.00
55470;BME280;41334;47.872;16.384;2022-10-16T06:17:11;99619.94;;;8.23;100.00
55470;BME280;41334;47.872;16.384;2022-10-16T06:20:13;99629.63;;;8.32;100.00
55470;BME280;41334;47.872;16.384;2022-10-16T06:23:15;99627.94;;;8.47;100.00
55470;BME280;41334;47.872;16.384;2022-10-16T06:26:19;99637.94;;;8.54;100.00
55470;BME280;41334;47.872;16.384;2022-10-16T06:29:21;99637.44;;;8.50;100.00
55470;BME280;41334;47.872;16.384;2022-10-16T06:32:23;99637.09;;;8.61;100.00
55470;BME280;41334;47.872;16.384;2022-10-16T06:35:24;99649.94;;;8.66;100.00
55470;BME280;41334;47.872;16.384;2022-10-16T06:38:26;99645.72;;;8.80;100.00
55470;BME280;41334;47.872;16.384;2022-10-16T06:41:28;99654.25;;;8.83;100.00
55470;BME280;41334;47.872;16.384;2022-10-16T06:44:31;99653.56;;;8.81;100.00
55470;BME280;41334;47.872;16.384;2022-10-16T06:47:33;99651.53;;;8.91;100.00
55470;BME280;41334;47.872;16.384;2022-10-16T06:50:34;99655.03;;;8.92;100.00
55470;BME280;41334;47.872;16.384;2022-10-16T06:53:39;99667.63;;;8.83;100.00
55470;BME280;41334;47.872;16.384;2022-10-16T06:57:01;99674.63;;;8.84;100.00
55470;BME280;41334;47.872;16.384;2022-10-16T07:00:03;99665.13;;;8.65;100.00
55470;BME280;41334;47.872;16.384;2022-10-16T07:03:05;99655.13;;;8.67;100.00
55470;BME280;41334;47.872;16.384;2022-10-16T07:06:09;99651.63;;;8.67;100.00
55470;BME280;41334;47.872;16.384;2022-10-16T07:09:11;99659.59;;;8.75;100.00
55470;BME280;41334;47.872;16.384;2022-10-16T07:12:13;99653.56;;;8.89;100.00
55470;BME280;41334;47.872;16.384;2022-10-16T07:15:15;99651.00;;;9.04;100.00
55470;BME280;41334;47.872;16.384;2022-10-16T07:18:16;99659.81;;;9.13;100.00
55470;BME280;41334;47.872;16.384;2022-10-16T07:21:20;99674.03;;;9.21;100.00
55470;BME280;41334;47.872;16.384;2022-10-16T07:24:22;99698.34;;;9.43;100.00
55470;BME280;41334;47.872;16.384;2022-10-16T07:27:24;99694.28;;;9.55;100.00
55470;BME280;41334;47.872;16.384;2022-10-16T07:30:26;99694.06;;;9.34;100.00
55470;BME280;41334;47.872;16.384;2022-10-16T07:33:28;99699.13;;;9.51;100.00
55470;BME280;41334;47.872;16.384;2022-10-16T07:36:30;99690.31;;;9.43;100.00
55470;BME280;41334;47.872;16.384;2022-10-16T07:39:32;99688.44;;;9.51;100.00
55470;BME280;41334;47.872;16.384;2022-10-16T07:42:34;99685.34;;;9.63;100.00
55470;BME280;41334;47.872;16.384;2022-10-16T07:45:47;99672.13;;;9.92;100.00
55470;BME280;41334;47.872;16.384;2022-10-16T07:48:49;99684.00;;;9.67;100.00
55470;BME280;41334;47.872;16.384;2022-10-16T07:51:51;99672.19;;;9.84;100.00
55470;BME280;41334;47.872;16.384;2022-10-16T07:54:53;99676.28;;;9.95;100.00
55470;BME280;41334;47.872;16.384;2022-10-16T07:57:56;99677.03;;;10.12;100.00
55470;BME280;41334;47.872;16.384;2022-10-16T08:00:58;99673.91;;;10.23;100.00
55470;BME280;41334;47.872;16.384;2022-10-16T08:04:00;99669.56;;;10.22;100.00
55470;BME280;41334;47.872;16.384;2022-10-16T08:07:02;99667.19;;;10.27;100.00
55470;BME280;41334;47.872;16.384;2022-10-16T08:10:04;99676.66;;;10.15;100.00
55470;BME280;41334;47.872;16.384;2022-10-16T08:13:06;99682.44;;;10.41;100.00
55470;BME280;41334;47.872;16.384;2022-10-16T08:16:13;99684.97;;;10.43;100.00
55470;BME280;41334;47.872;16.384;2022-10-16T08:19:14;99675.03;;;10.05;100.00
55470;BME280;41334;47.872;16.384;2022-10-16T08:22:17;99688.53;;;10.35;100.00
55470;BME280;41334;47.872;16.384;2022-10-16T08:25:19;99693.97;;;10.27;100.00
55470;BME280;41334;47.872;16.384;2022-10-16T08:28:21;99693.38;;;10.77;100.00
55470;BME280;41334;47.872;16.384;2022-10-16T08:31:24;99686.84;;;10.57;100.00
55470;BME280;41334;47.872;16.384;2022-10-16T08:34:26;99688.38;;;10.74;100.00
55470;BME280;41334;47.872;16.384;2022-10-16T08:37:31;99694.81;;;10.50;100.00
55470;BME280;41334;47.872;16.384;2022-10-16T08:40:35;99697.72;;;10.64;100.00
55470;BME280;41334;47.872;16.384;2022-10-16T08:43:59;99697.63;;;10.72;100.00
55470;BME280;41334;47.872;16.384;2022-10-16T08:50:25;99700.06;;;11.11;100.00
55470;BME280;41334;47.872;16.384;2022-10-16T08:53:52;99704.03;;;11.00;100.00
55470;BME280;41334;47.872;16.384;2022-10-16T08:56:56;99701.16;;;10.87;100.00
55470;BME280;41334;47.872;16.384;2022-10-16T09:00:05;99701.91;;;10.96;100.00
55470;BME280;41334;47.872;16.384;2022-10-16T09:13:31;99678.38;;;12.14;100.00
55470;BME280;41334;47.872;16.384;2022-10-16T09:16:43;99678.50;;;12.06;100.00
55470;BME280;41334;47.872;16.384;2022-10-16T09:19:52;99673.56;;;12.31;100.00
55470;BME280;41334;47.872;16.384;2022-10-16T09:26:11;99676.31;;;12.66;100.00
55470;BME280;41334;47.872;16.384;2022-10-16T09:29:15;99680.19;;;12.85;100.00
55470;BME280;41334;47.872;16.384;2022-10-16T09:32:19;99695.06;;;13.15;100.00
55470;BME280;41334;47.872;16.384;2022-10-16T09:35:31;99685.56;;;12.85;100.00
55470;BME280;41334;47.872;16.384;2022-10-16T09:38:36;99689.28;;;12.84;100.00
55470;BME280;41334;47.872;16.384;2022-10-16T09:41:39;99690.84;;;13.41;100.00
55470;BME280;41334;47.872;16.384;2022-10-16T09:44:47;99692.41;;;13.63;100.00
55470;BME280;41334;47.872;16.384;2022-10-16T09:47:50;99689.78;;;12.94;100.00
55470;BME280;41334;47.872;16.384;2022-10-16T09:51:01;99703.69;;;13.32;100.00
55470;BME280;41334;47.872;16.384;2022-10-16T09:57:13;99704.91;;;13.78;100.00
55470;BME280;41334;47.872;16.384;2022-10-16T10:00:18;99704.69;;;13.73;100.00
55470;BME280;41334;47.872;16.384;2022-10-16T10:03:41;99697.75;;;13.57;100.00
55470;BME280;41334;47.872;16.384;2022-10-16T10:06:45;99704.03;;;13.70;100.00
55470;BME280;41334;47.872;16.384;2022-10-16T10:09:48;99701.44;;;13.84;100.00
55470;BME280;41334;47.872;16.384;2022-10-16T10:12:50;99690.09;;;14.35;100.00
55470;BME280;41334;47.872;16.384;2022-10-16T10:15:53;99679.09;;;14.30;100.00
55470;BME280;41334;47.872;16.384;2022-10-16T10:18:59;99690.09;;;14.21;100.00
55470;BME280;41334;47.872;16.384;2022-10-16T10:22:01;99681.59;;;14.38;100.00
55470;BME280;41334;47.872;16.384;2022-10-16T10:28:15;99690.44;;;13.99;100.00
55470;BME280;41334;47.872;16.384;2022-10-16T10:31:47;99693.78;;;14.07;100.00
55470;BME280;41334;47.872;16.384;2022-10-16T10:35:12;99692.91;;;13.87;100.00
55470;BME280;41334;47.872;16.384;2022-10-16T10:51:24;99684.88;;;14.07;100.00
55470;BME280;41334;47.872;16.384;2022-10-16T10:54:54;99683.59;;;13.89;100.00
55470;BME280;41334;47.872;16.384;2022-10-16T11:01:17;99688.41;;;13.94;100.00
55470;BME280;41334;47.872;16.384;2022-10-16T11:07:39;99695.22;;;13.90;100.00
55470;BME280;41334;47.872;16.384;2022-10-16T11:17:23;99676.81;;;14.60;100.00
55470;BME280;41334;47.872;16.384;2022-10-16T11:20:54;99665.63;;;14.76;100.00
55470;BME280;41334;47.872;16.384;2022-10-16T11:24:01;99665.41;;;14.64;100.00
55470;BME280;41334;47.872;16.384;2022-10-16T11:27:09;99665.63;;;14.36;100.00
55470;BME280;41334;47.872;16.384;2022-10-16T11:30:20;99658.16;;;14.52;100.00
55470;BME280;41334;47.872;16.384;2022-10-16T11:33:34;99659.19;;;14.84;100.00
55470;BME280;41334;47.872;16.384;2022-10-16T11:37:25;99650.06;;;14.78;100.00
55470;BME280;41334;47.872;16.384;2022-10-16T11:40:52;99655.63;;;15.03;100.00
55470;BME280;41334;47.872;16.384;2022-10-16T11:43:41;99638.13;;;15.12;100.00
55470;BME280;41334;47.872;16.384;2022-10-16T11:46:58;99644.69;;;15.36;100.00
55470;BME280;41334;47.872;16.384;2022-10-16T11:56:51;99640.31;;;15.87;100.00
55470;BME280;41334;47.872;16.384;2022-10-16T12:00:05;99634.25;;;15.91;100.00
55470;BME280;41334;47.872;16.384;2022-10-16T12:09:39;99620.69;;;15.98;100.00
55470;BME280;41334;47.872;16.384;2022-10-16T12:12:42;99617.22;;;15.91;100.00
55470;BME280;41334;47.872;16.384;2022-10-16T12:15:46;99623.75;;;15.76;100.00
55470;BME280;41334;47.872;16.384;2022-10-16T12:19:12;99613.34;;;16.05;100.00
55470;BME280;41334;47.872;16.384;2022-10-16T12:22:18;99614.78;;;16.08;100.00
55470;BME280;41334;47.872;16.384;2022-10-16T12:25:39;99613.47;;;16.17;100.00
55470;BME280;41334;47.872;16.384;2022-10-16T12:28:47;99612.91;;;16.33;100.00
55470;BME280;41334;47.872;16.384;2022-10-16T12:31:53;99612.81;;;16.46;100.00
55470;BME280;41334;47.872;16.384;2022-10-16T12:35:03;99609.31;;;16.64;100.00
55470;BME280;41334;47.872;16.384;2022-10-16T12:38:18;99606.22;;;16.61;100.00
55470;BME280;41334;47.872;16.384;2022-10-16T12:41:32;99612.34;;;16.74;100.00
55470;BME280;41334;47.872;16.384;2022-10-16T12:44:35;99609.66;;;16.74;100.00
55470;BME280;41334;47.872;16.384;2022-10-16T12:47:48;99603.91;;;16.83;100.00
55470;BME280;41334;47.872;16.384;2022-10-16T12:50:50;99615.28;;;16.73;100.00
55470;BME280;41334;47.872;16.384;2022-10-16T12:54:02;99620.53;;;16.86;100.00
55470;BME280;41334;47.872;16.384;2022-10-16T12:57:28;99610.63;;;16.80;100.00
55470;BME280;41334;47.872;16.384;2022-10-16T13:00:45;99608.44;;;16.89;100.00
55470;BME280;41334;47.872;16.384;2022-10-16T13:04:18;99610.84;;;16.97;100.00
55470;BME280;41334;47.872;16.384;2022-10-16T13:14:11;99604.09;;;17.06;100.00
55470;BME280;41334;47.872;16.384;2022-10-16T13:17:43;99601.44;;;17.18;100.00
55470;BME280;41334;47.872;16.384;2022-10-16T13:27:22;99609.88;;;17.10;100.00
55470;BME280;41334;47.872;16.384;2022-10-16T13:30:30;99608.06;;;17.03;100.00
55470;BME280;41334;47.872;16.384;2022-10-16T13:33:37;99613.47;;;17.03;100.00
55470;BME280;41334;47.872;16.384;2022-10-16T13:36:49;99610.56;;;17.05;100.00
55470;BME280;41334;47.872;16.384;2022-10-16T13:40:23;99618.59;;;17.12;100.00
55470;BME280;41334;47.872;16.384;2022-10-16T13:43:28;99616.88;;;16.99;100.00
55470;BME280;41334;47.872;16.384;2022-10-16T13:46:33;99626.72;;;16.93;100.00
55470;BME280;41334;47.872;16.384;2022-10-16T13:49:35;99620.31;;;16.88;100.00
55470;BME280;41334;47.872;16.384;2022-10-16T13:52:37;99630.28;;;16.94;100.00
55470;BME280;41334;47.872;16.384;2022-10-16T13:55:40;99630.94;;;16.89;100.00
55470;BME280;41334;47.872;16.384;2022-10-16T13:58:42;99627.41;;;16.89;100.00
55470;BME280;41334;47.872;16.384;2022-10-16T14:01:44;99631.69;;;16.78;100.00
55470;BME280;41334;47.872;16.384;2022-10-16T14:04:46;99630.63;;;16.79;100.00
55470;BME280;41334;47.872;16.384;2022-10-16T14:07:50;99631.13;;;16.88;100.00
55470;BME280;41334;47.872;16.384;2022-10-16T14:10:56;99624.06;;;16.87;100.00
55470;BME280;41334;47.872;16.384;2022-10-16T14:13:58;99628.75;;;16.79;100.00
55470;BME280;41334;47.872;16.384;2022-10-16T14:17:00;99625.88;;;16.74;100.00
55470;BME280;41334;47.872;16.384;2022-10-16T14:20:05;99624.22;;;16.73;100.00
55470;BME280;41334;47.872;16.384;2022-10-16T14:23:23;99627.38;;;16.70;100.00
55470;BME280;41334;47.872;16.384;2022-10-16T14:26:29;99634.59;;;16.58;100.00
55470;BME280;41334;47.872;16.384;2022-10-16T14:29:42;99631.09;;;16.51;100.00
55470;BME280;41334;47.872;16.384;2022-10-16T14:33:01;99634.78;;;16.57;100.00
55470;BME280;41334;47.872;16.384;2022-10-16T14:39:19;99631.09;;;16.51;100.00
55470;BME280;41334;47.872;16.384;2022-10-16T14:42:24;99627.38;;;16.45;100.00
55470;BME280;41334;47.872;16.384;2022-10-16T14:45:30;99624.34;;;16.35;100.00
55470;BME280;41334;47.872;16.384;2022-10-16T14:48:32;99622.28;;;16.30;100.00
55470;BME280;41334;47.872;16.384;2022-10-16T14:51:34;99622.59;;;16.22;100.00
55470;BME280;41334;47.872;16.384;2022-10-16T14:54:36;99624.47;;;16.22;100.00
55470;BME280;41334;47.872;16.384;2022-10-16T14:57:38;99630.06;;;16.20;100.00
55470;BME280;41334;47.872;16.384;2022-10-16T15:00:40;99624.94;;;16.12;100.00
55470;BME280;41334;47.872;16.384;2022-10-16T15:03:43;99638.47;;;16.12;100.00
55470;BME280;41334;47.872;16.384;2022-10-16T15:06:45;99624.38;;;16.03;100.00
55470;BME280;41334;47.872;16.384;2022-10-16T15:09:47;99635.03;;;15.98;100.00
55470;BME280;41334;47.872;16.384;2022-10-16T15:12:50;99639.44;;;15.93;100.00
55470;BME280;41334;47.872;16.384;2022-10-16T15:15:52;99636.56;;;15.88;100.00
55470;BME280;41334;47.872;16.384;2022-10-16T15:18:54;99633.94;;;15.74;100.00
55470;BME280;41334;47.872;16.384;2022-10-16T15:21:56;99642.53;;;15.65;100.00
55470;BME280;41334;47.872;16.384;2022-10-16T15:24:58;99637.09;;;15.58;100.00
55470;BME280;41334;47.872;16.384;2022-10-16T15:28:01;99631.78;;;15.45;100.00
55470;BME280;41334;47.872;16.384;2022-10-16T15:31:04;99638.84;;;15.46;100.00
55470;BME280;41334;47.872;16.384;2022-10-16T15:34:08;99641.75;;;15.38;100.00
55470;BME280;41334;47.872;16.384;2022-10-16T15:37:10;99650.53;;;15.26;100.00
55470;BME280;41334;47.872;16.384;2022-10-16T15:40:14;99648.91;;;15.19;100.00
55470;BME280;41334;47.872;16.384;2022-10-16T15:43:16;99648.72;;;15.07;100.00
55470;BME280;41334;47.872;16.384;2022-10-16T15:46:20;99653.53;;;15.05;100.00
55470;BME280;41334;47.872;16.384;2022-10-16T15:49:22;99645.88;;;14.95;100.00
55470;BME280;41334;47.872;16.384;2022-10-16T15:52:24;99650.69;;;14.87;100.00
55470;BME280;41334;47.872;16.384;2022-10-16T15:55:26;99655.03;;;14.74;100.00
55470;BME280;41334;47.872;16.384;2022-10-16T15:58:29;99656.06;;;14.67;100.00
55470;BME280;41334;47.872;16.384;2022-10-16T16:01:33;99659.81;;;14.59;100.00
55470;BME280;41334;47.872;16.384;2022-10-16T16:04:35;99660.44;;;14.48;100.00
55470;BME280;41334;47.872;16.384;2022-10-16T16:07:45;99657.72;;;14.35;100.00
55470;BME280;41334;47.872;16.384;2022-10-16T16:11:02;99665.81;;;14.35;100.00
55470;BME280;41334;47.872;16.384;2022-10-16T16:14:05;99674.31;;;14.18;100.00
55470;BME280;41334;47.872;16.384;2022-10-16T16:17:07;99665.63;;;14.16;100.00
55470;BME280;41334;47.872;16.384;2022-10-16T16:20:09;99676.81;;;14.20;100.00
55470;BME280;41334;47.872;16.384;2022-10-16T16:23:11;99686.75;;;14.06;100.00
55470;BME280;41334;47.872;16.384;2022-10-16T16:26:20;99685.09;;;14.05;100.00
55470;BME280;41334;47.872;16.384;2022-10-16T16:29:27;99684.66;;;14.02;100.00
55470;BME280;41334;47.872;16.384;2022-10-16T16:32:29;99703.69;;;13.93;100.00
55470;BME280;41334;47.872;16.384;2022-10-16T16:35:31;99702.03;;;13.79;100.00
55470;BME280;41334;47.872;16.384;2022-10-16T16:38:33;99715.06;;;13.76;100.00
55470;BME280;41334;47.872;16.384;2022-10-16T16:41:35;99714.78;;;13.64;100.00
55470;BME280;41334;47.872;16.384;2022-10-16T16:44:36;99718.53;;;13.63;100.00
55470;BME280;41334;47.872;16.384;2022-10-16T16:47:38;99724.66;;;13.50;100.00
55470;BME280;41334;47.872;16.384;2022-10-16T16:50:40;99725.25;;;13.45;100.00
55470;BME280;41334;47.872;16.384;2022-10-16T16:53:43;99735.41;;;13.43;100.00
55470;BME280;41334;47.872;16.384;2022-10-16T16:56:45;99739.75;;;13.44;100.00
55470;BME280;41334;47.872;16.384;2022-10-16T16:59:50;99734.97;;;13.40;100.00
55470;BME280;41334;47.872;16.384;2022-10-16T17:02:52;99744.06;;;13.32;100.00
55470;BME280;41334;47.872;16.384;2022-10-16T17:06:02;99748.66;;;13.38;100.00
55470;BME280;41334;47.872;16.384;2022-10-16T17:09:05;99747.56;;;13.33;100.00
55470;BME280;41334;47.872;16.384;2022-10-16T17:12:07;99751.69;;;13.29;100.00
55470;BME280;41334;47.872;16.384;2022-10-16T17:15:09;99762.84;;;13.26;100.00
55470;BME280;41334;47.872;16.384;2022-10-16T17:18:11;99766.53;;;13.18;100.00
55470;BME280;41334;47.872;16.384;2022-10-16T17:21:13;99774.94;;;13.08;100.00
55470;BME280;41334;47.872;16.384;2022-10-16T17:24:15;99782.78;;;13.03;100.00
55470;BME280;41334;47.872;16.384;2022-10-16T17:27:17;99789.56;;;12.99;100.00
55470;BME280;41334;47.872;16.384;2022-10-16T17:30:19;99784.34;;;12.91;100.00
55470;BME280;41334;47.872;16.384;2022-10-16T17:33:21;99791.34;;;12.85;100.00
55470;BME280;41334;47.872;16.384;2022-10-16T17:36:23;99789.22;;;12.81;100.00
55470;BME280;41334;47.872;16.384;2022-10-16T17:39:25;99790.84;;;12.75;100.00